createdAt,value
2023-04-18T00:05:50.330Z,86.6
2023-04-18T00:11:50.328Z,87.8
2023-04-18T00:17:50.348Z,87.8
2023-04-18T00:23:50.333Z,87.6
2023-04-18T00:29:50.323Z,88
2023-04-18T00:35:50.319Z,88.5
2023-04-18T00:41:50.322Z,88.3
2023-04-18T00:47:50.486Z,87.3
2023-04-18T00:53:50.322Z,87.8
2023-04-18T00:59:50.337Z,88
2023-04-18T01:05:50.321Z,88.4
2023-04-18T01:11:50.308Z,87.9
2023-04-18T01:17:50.345Z,88.9
2023-04-18T01:23:50.318Z,90.1
2023-04-18T01:29:50.328Z,91.1
2023-04-18T01:35:50.330Z,91.8
2023-04-18T01:41:50.322Z,92
2023-04-18T01:47:50.337Z,93
2023-04-18T01:53:50.351Z,92.7
2023-04-18T01:59:50.321Z,93.9
2023-04-18T02:05:50.316Z,95.3
2023-04-18T02:11:50.334Z,96.8
2023-04-18T02:17:50.342Z,97.1
2023-04-18T02:23:50.304Z,98.5
2023-04-18T02:29:50.323Z,100
2023-04-18T02:35:50.296Z,100
2023-04-18T02:41:50.323Z,100
2023-04-18T02:47:55.274Z,100
2023-04-18T02:53:50.316Z,100
2023-04-18T02:59:50.379Z,100
2023-04-18T03:05:50.322Z,100
2023-04-18T03:11:50.313Z,100
2023-04-18T03:17:50.380Z,100
2023-04-18T03:23:50.341Z,100
2023-04-18T03:29:50.314Z,100
2023-04-18T03:35:50.310Z,100
2023-04-18T03:41:50.296Z,100
2023-04-18T03:47:50.346Z,100
2023-04-18T03:53:50.317Z,100
2023-04-18T04:00:00.594Z,100
2023-04-18T04:05:50.295Z,100
2023-04-18T04:11:50.371Z,100
2023-04-18T04:17:50.405Z,100
2023-04-18T04:23:50.299Z,100
2023-04-18T04:29:50.303Z,100
2023-04-18T04:35:50.320Z,100
2023-04-18T04:41:50.298Z,100
2023-04-18T04:47:50.303Z,100
2023-04-18T04:53:50.289Z,100
2023-04-18T04:59:50.303Z,100
2023-04-18T05:05:50.283Z,100
2023-04-18T05:11:50.375Z,100
2023-04-18T05:17:50.282Z,100
2023-04-18T05:23:50.277Z,100
2023-04-18T05:29:50.278Z,100
2023-04-18T05:35:50.288Z,100
2023-04-18T05:41:50.295Z,100
2023-04-18T05:47:50.298Z,100
2023-04-18T05:53:50.290Z,100
2023-04-18T05:59:50.285Z,100
2023-04-18T06:05:50.374Z,100
2023-04-18T06:11:50.313Z,100
2023-04-18T06:17:50.306Z,100
2023-04-18T06:23:50.279Z,100
2023-04-18T06:29:50.285Z,100
2023-04-18T06:35:50.276Z,87.6
2023-04-18T06:41:50.274Z,82.5
2023-04-18T06:47:50.310Z,94
2023-04-18T06:53:50.264Z,94.1
2023-04-18T06:59:50.276Z,95.3
2023-04-18T07:05:50.263Z,91.7
2023-04-18T07:11:50.285Z,88.5
2023-04-18T07:17:50.305Z,79.5
2023-04-18T07:23:50.252Z,80.4
2023-04-18T07:29:50.279Z,79.3
2023-04-18T07:35:50.278Z,80.6
2023-04-18T07:41:50.292Z,79.1
2023-04-18T07:47:50.332Z,71.8
2023-04-18T07:53:50.258Z,69.5
2023-04-18T07:59:50.281Z,73.5
2023-04-18T08:05:50.285Z,72.6
2023-04-18T08:11:50.309Z,76.1
2023-04-18T08:17:50.362Z,78.1
2023-04-18T08:23:50.301Z,79.8
2023-04-18T08:29:50.301Z,77.8
2023-04-18T08:35:50.278Z,77.6
2023-04-18T08:41:50.281Z,78
2023-04-18T08:47:50.696Z,77.4
2023-04-18T08:53:50.304Z,76.9
2023-04-18T08:59:51.082Z,74.6
2023-04-18T09:05:50.302Z,74.1
2023-04-18T09:11:50.280Z,73.9
2023-04-18T09:17:50.303Z,74.3
2023-04-18T09:23:50.353Z,72.6
2023-04-18T09:29:50.271Z,59.1
2023-04-18T09:35:50.263Z,48.8
2023-04-18T09:41:50.269Z,60
2023-04-18T09:47:50.308Z,57
2023-04-18T09:53:50.299Z,50.1
2023-04-18T09:59:50.276Z,55.1
2023-04-18T10:05:50.401Z,63.6
2023-04-18T10:11:50.312Z,61.5
2023-04-18T10:18:02.717Z,61
2023-04-18T10:23:50.292Z,63.5
2023-04-18T10:29:50.421Z,66.6
2023-04-18T10:35:50.295Z,67.6
2023-04-18T10:41:51.168Z,64.7
2023-04-18T10:47:50.314Z,62.2
2023-04-18T10:53:50.282Z,65.9
2023-04-18T10:59:50.288Z,64.3
2023-04-18T11:05:50.279Z,58.8
2023-04-18T11:11:50.276Z,61.3
2023-04-18T11:17:50.277Z,60.1
2023-04-18T11:23:50.269Z,60.4
2023-04-18T11:29:50.298Z,63.6
2023-04-18T11:35:50.281Z,62.5
2023-04-18T11:41:50.314Z,63.1
2023-04-18T11:47:50.339Z,65.1
2023-04-18T11:53:50.444Z,62.5
2023-04-18T11:59:50.338Z,62
2023-04-18T12:06:00.783Z,63.2
2023-04-18T12:11:50.350Z,64.2
2023-04-18T12:17:50.303Z,63.6
2023-04-18T12:23:50.287Z,64.7
2023-04-18T12:29:50.278Z,63.8
2023-04-18T12:35:50.271Z,62.7
2023-04-18T12:41:50.275Z,61.2
2023-04-18T12:47:50.349Z,62.3
2023-04-18T12:53:50.261Z,61.2
2023-04-18T13:00:00.645Z,60.2
2023-04-18T13:05:50.284Z,60.4
2023-04-18T13:11:50.294Z,57.9
2023-04-18T13:17:50.452Z,57.1
2023-04-18T13:23:50.275Z,57.1
2023-04-18T13:29:50.309Z,58.4
2023-04-18T13:35:50.300Z,60.5
2023-04-18T13:41:50.303Z,58.1
2023-04-18T13:47:50.301Z,56.8
2023-04-18T13:53:50.279Z,58.7
2023-04-18T13:59:50.300Z,60.8
2023-04-18T14:05:50.281Z,57.8
2023-04-18T14:11:50.361Z,58.8
2023-04-18T14:17:50.340Z,58.7
2023-04-18T14:23:50.291Z,58
2023-04-18T14:29:50.284Z,55.8
2023-04-18T14:35:50.290Z,59
2023-04-18T14:41:50.268Z,59.1
2023-04-18T14:47:50.276Z,60.4
2023-04-18T14:53:50.279Z,59.1
2023-04-18T14:59:50.307Z,59.1
2023-04-18T15:05:50.283Z,60.2
2023-04-18T15:11:50.266Z,59
2023-04-18T15:17:50.325Z,59
2023-04-18T15:23:50.314Z,59.2
2023-04-18T15:29:50.294Z,58.5
2023-04-18T15:35:50.287Z,58.3
2023-04-18T15:41:50.299Z,59.7
2023-04-18T15:47:50.338Z,59.8
2023-04-18T15:53:50.269Z,58.2
2023-04-18T15:59:50.290Z,59.9
2023-04-18T16:05:50.273Z,57.8
2023-04-18T16:11:50.291Z,58
2023-04-18T16:17:50.308Z,58.7
2023-04-18T16:23:50.274Z,57.9
2023-04-18T16:29:50.282Z,58.5
2023-04-18T16:35:50.281Z,59.2
2023-04-18T16:41:50.292Z,58.7
2023-04-18T16:47:50.361Z,59.1
2023-04-18T16:53:50.274Z,59.9
2023-04-18T16:59:50.277Z,59
2023-04-18T17:05:50.276Z,58.3
2023-04-18T17:11:50.314Z,58.9
2023-04-18T17:17:50.437Z,59.8
2023-04-18T17:23:50.303Z,60.7
2023-04-18T17:29:50.284Z,60.9
2023-04-18T17:35:50.275Z,60
2023-04-18T17:42:00.575Z,60.2
2023-04-18T17:47:50.310Z,61
2023-04-18T17:53:50.507Z,63.1
2023-04-18T17:59:50.346Z,63.3
2023-04-18T18:05:50.391Z,63.6
2023-04-18T18:11:50.296Z,64.2
2023-04-18T18:17:50.389Z,65.2
2023-04-18T18:23:50.285Z,66.4
2023-04-18T18:29:50.308Z,67.6
2023-04-18T18:35:50.312Z,68.4
2023-04-18T18:41:50.289Z,69.4
2023-04-18T18:47:50.367Z,69
2023-04-18T18:53:50.286Z,69.3
2023-04-18T18:59:50.294Z,68.3
2023-04-18T19:05:50.293Z,66.5
2023-04-18T19:11:50.299Z,66.1
2023-04-18T19:17:50.458Z,66.1
2023-04-18T19:23:50.347Z,66.8
2023-04-18T19:29:50.303Z,66.7
2023-04-18T19:35:50.289Z,67.4
2023-04-18T19:41:50.300Z,67.9
2023-04-18T19:47:50.453Z,68.3
2023-04-18T19:53:50.330Z,69.1
2023-04-18T19:59:50.376Z,69.9
2023-04-18T20:05:50.349Z,69.7
2023-04-18T20:11:50.310Z,70.2
2023-04-18T20:17:50.332Z,71.3
2023-04-18T20:23:50.303Z,71.3
2023-04-18T20:29:50.293Z,72.2
2023-04-18T20:35:50.294Z,72.7
2023-04-18T20:41:50.304Z,72.9
2023-04-18T20:47:50.323Z,73.4
2023-04-18T20:53:50.316Z,74.5
2023-04-18T20:59:50.292Z,75
2023-04-18T21:05:50.283Z,74.6
2023-04-18T21:11:50.301Z,74.7
2023-04-18T21:17:50.322Z,75.9
2023-04-18T21:23:50.308Z,77.1
2023-04-18T21:29:50.290Z,78
2023-04-18T21:35:50.282Z,79.2
2023-04-18T21:41:50.296Z,79.7
2023-04-18T21:47:50.308Z,79.7
2023-04-18T21:53:50.295Z,79.8
2023-04-18T21:59:50.296Z,80
2023-04-18T22:05:50.300Z,80.7
2023-04-18T22:11:50.303Z,80.4
2023-04-18T22:17:50.541Z,80.7
2023-04-18T22:23:50.366Z,81.8
2023-04-18T22:29:50.301Z,82.1
2023-04-18T22:35:50.329Z,83.7
2023-04-18T22:41:50.286Z,83.8
2023-04-18T22:47:50.307Z,84.3
2023-04-18T22:53:50.327Z,84.9
2023-04-18T22:59:50.307Z,85.5
2023-04-18T23:05:50.288Z,85.5
2023-04-18T23:11:50.295Z,86.1
2023-04-18T23:17:50.333Z,86.8
2023-04-18T23:23:50.275Z,87.5
2023-04-18T23:29:50.311Z,88.1
2023-04-18T23:35:50.289Z,89.3
2023-04-18T23:41:50.295Z,89.5
2023-04-18T23:47:50.332Z,90.3
2023-04-18T23:53:50.312Z,91.6
2023-04-18T23:59:50.282Z,93.1
